Time;durP1;ratioP1;P1;durP2;ratioP2;P2;SDS_P1;SDS_P2;PMS_P1;PMS_P2;Temp;Humidity;BMP_temperature;BMP_pressure;BME280_temperature;BME280_humidity;BME280_pressure;Samples;Min_cycle;Max_cycle;Signal;HPM_P1;HPM_P2
2021/12/15 00:01:50;;;;;;;56.33;29.83;;;;;;;9.45;82.83;102615.97;5017924;28;20392;-63
2021/12/15 00:04:18;;;;;;;59.17;30.48;;;;;;;9.45;82.75;102622.28;5000156;28;20054;-64
2021/12/15 00:06:46;;;;;;;61.55;30.85;;;;;;;9.40;82.84;102610.41;5002710;28;20350;-64
2021/12/15 00:09:14;;;;;;;57.13;31.52;;;;;;;9.33;83.81;102613.34;4998855;28;20054;-63
2021/12/15 00:11:42;;;;;;;57.47;31.17;;;;;;;9.55;82.73;102605.91;4997820;28;20042;-63
2021/12/15 00:14:16;;;;;;;60.63;31.13;;;;;;;9.42;82.70;102610.97;4963859;28;20409;-64
2021/12/15 00:16:44;;;;;;;59.13;29.92;;;;;;;9.42;83.01;102605.47;4998809;28;20050;-63
2021/12/15 00:19:12;;;;;;;59.25;30.48;;;;;;;9.40;83.49;102608.47;4996641;28;20050;-63
2021/12/15 00:21:39;;;;;;;64.57;31.73;;;;;;;9.42;83.31;102599.97;4980284;28;20055;-63
2021/12/15 00:24:08;;;;;;;58.38;29.77;;;;;;;9.52;82.84;102606.41;4983176;28;20054;-63
2021/12/15 00:26:36;;;;;;;56.97;30.55;;;;;;;9.47;82.20;102602.75;5017366;28;20046;-64
2021/12/15 00:29:06;;;;;;;62.00;30.30;;;;;;;9.24;83.43;102603.91;5017224;28;20053;-66
2021/12/15 00:31:34;;;;;;;54.92;29.13;;;;;;;9.50;83.16;102605.00;4999719;28;20054;-65
2021/12/15 00:34:04;;;;;;;57.75;29.73;;;;;;;9.73;82.02;102604.66;4996363;28;20045;-65
2021/12/15 00:36:32;;;;;;;;;;;;;;;9.40;82.13;102605.72;5000193;28;20073;-65
2021/12/15 00:39:00;;;;;;;56.53;29.83;;;;;;;9.35;82.68;102602.09;5015029;28;20032;-66
2021/12/15 00:41:28;;;;;;;51.03;28.05;;;;;;;9.63;82.28;102604.56;4981713;28;20068;-65
2021/12/15 00:43:55;;;;;;;55.70;29.23;;;;;;;9.74;81.30;102601.69;5013190;28;20058;-65
2021/12/15 00:46:23;;;;;;;51.45;27.67;;;;;;;9.80;81.26;102605.28;4983548;28;20524;-67
2021/12/15 00:48:50;;;;;;;52.08;28.25;;;;;;;9.81;80.89;102599.53;5007734;28;20042;-66
2021/12/15 00:51:18;;;;;;;54.30;29.02;;;;;;;9.71;81.42;102601.38;5014454;28;20050;-66
2021/12/15 00:53:45;;;;;;;50.85;27.63;;;;;;;9.58;81.31;102602.63;5008910;28;20125;-66
2021/12/15 00:56:13;;;;;;;55.53;29.10;;;;;;;9.79;80.96;102596.22;5013465;28;20046;-65
2021/12/15 00:58:42;;;;;;;50.45;28.33;;;;;;;9.65;80.96;102605.16;4998023;28;20057;-66
2021/12/15 01:01:09;;;;;;;54.53;27.80;;;;;;;9.65;81.23;102596.91;4981351;28;20125;-66
2021/12/15 01:03:37;;;;;;;52.20;27.60;;;;;;;9.72;81.00;102600.25;4997510;28;20061;-65
2021/12/15 01:06:09;;;;;;;49.30;27.52;;;;;;;9.90;80.57;102594.38;4995708;28;20049;-65
2021/12/15 01:08:43;;;;;;;56.10;27.70;;;;;;;9.65;80.81;102600.47;4997160;28;20058;-66
2021/12/15 01:11:26;;;;;;;51.15;27.10;;;;;;;9.68;80.80;102608.22;4981756;28;20083;-66
2021/12/15 01:22:31;;;;;;;49.22;26.33;;;;;;;9.64;80.86;102604.31;4979460;28;20451;-65
2021/12/15 01:25:11;;;;;;;45.47;25.85;;;;;;;9.75;80.24;102602.47;4996738;28;20042;-65
2021/12/15 01:27:38;;;;;;;48.53;26.98;;;;;;;9.72;79.99;102598.34;4979482;28;20061;-66
2021/12/15 01:30:08;;;;;;;51.50;27.67;;;;;;;9.58;80.74;102597.13;4978671;28;20102;-65
2021/12/15 01:32:35;;;;;;;53.17;27.95;;;;;;;9.33;81.88;102596.06;4963081;28;20046;-65
2021/12/15 01:35:03;;;;;;;47.13;25.77;;;;;;;9.87;80.76;102587.47;5003373;28;20503;-66
2021/12/15 01:37:31;;;;;;;46.33;26.00;;;;;;;9.89;79.61;102589.94;4998216;28;20053;-66
2021/12/15 01:39:59;;;;;;;48.25;27.60;;;;;;;9.66;80.10;102591.13;4994447;28;20054;-66
2021/12/15 01:42:32;;;;;;;45.00;25.92;;;;;;;9.81;79.67;102588.53;4983443;28;20054;-64
2021/12/15 01:47:46;;;;;;;46.60;25.15;;;;;;;9.92;79.45;102584.75;5015867;28;20054;-66
2021/12/15 01:50:13;;;;;;;51.42;26.88;;;;;;;9.87;78.86;102586.63;5015779;28;20053;-66
2021/12/15 01:52:41;;;;;;;44.17;25.27;;;;;;;9.75;79.45;102596.97;5015732;28;20045;-65
2021/12/15 01:55:15;;;;;;;43.28;23.95;;;;;;;9.77;79.77;102592.03;5013901;28;20042;-65
2021/12/15 01:57:44;;;;;;;41.00;24.10;;;;;;;9.67;80.06;102605.72;5014631;28;20081;-65
2021/12/15 02:00:19;;;;;;;43.17;25.00;;;;;;;9.81;79.73;102601.44;4997653;28;20069;-66
2021/12/15 02:02:46;;;;;;;42.13;23.85;;;;;;;9.69;79.52;102604.34;4998028;28;20053;-64
2021/12/15 02:05:14;;;;;;;40.95;22.83;;;;;;;9.81;79.17;102609.69;4989859;28;20425;-64
2021/12/15 02:07:43;;;;;;;43.13;22.88;;;;;;;9.86;79.13;102607.81;4978291;28;20512;-66
2021/12/15 02:10:11;;;;;;;38.78;22.15;;;;;;;9.85;78.61;102608.91;4969621;28;20524;-66
2021/12/15 02:12:57;;;;;;;38.08;22.23;;;;;;;9.60;78.94;102610.59;4995596;28;20058;-66
2021/12/15 02:15:38;;;;;;;35.67;20.98;;;;;;;9.73;79.37;102619.25;4977854;28;20386;-65
2021/12/15 02:18:10;;;;;;;37.95;21.98;;;;;;;9.90;78.15;102608.94;4978320;28;20058;-66
2021/12/15 02:20:43;;;;;;;38.53;21.90;;;;;;;9.69;79.02;102625.56;4962883;28;20057;-65
2021/12/15 02:23:13;;;;;;;40.95;23.55;;;;;;;9.73;78.68;102626.69;4995710;28;20051;-66
2021/12/15 02:25:40;;;;;;;40.05;22.70;;;;;;;9.85;78.68;102627.34;4996904;28;20054;-64
2021/12/15 02:28:08;;;;;;;41.38;22.83;;;;;;;9.63;79.01;102629.34;4995523;28;20073;-65
2021/12/15 02:38:37;;;;;;;38.35;22.10;;;;;;;9.80;79.35;102617.13;4984108;28;20057;-65
2021/12/15 02:41:09;;;;;;;40.33;21.33;;;;;;;9.75;78.60;102624.50;4979081;28;20054;-65
2021/12/15 02:43:36;;;;;;;39.40;21.73;;;;;;;9.86;78.17;102623.50;4991513;28;20069;-66
2021/12/15 02:46:05;;;;;;;37.70;22.35;;;;;;;9.93;77.87;102618.59;5014938;28;20061;-65
2021/12/15 02:48:33;;;;;;;37.42;21.70;;;;;;;9.63;78.46;102619.16;5015198;28;20441;-66
2021/12/15 02:51:00;;;;;;;35.90;22.30;;;;;;;9.47;79.39;102617.34;4981594;28;20064;-65
2021/12/15 02:53:27;;;;;;;41.28;22.77;;;;;;;9.59;79.54;102622.72;5014822;28;20061;-65
2021/12/15 02:55:54;;;;;;;37.83;21.33;;;;;;;9.78;79.00;102622.06;5013835;28;20050;-66
2021/12/15 02:58:22;;;;;;;37.35;22.13;;;;;;;9.92;77.97;102615.00;4997602;28;20052;-66
2021/12/15 03:01:02;;;;;;;33.20;20.10;;;;;;;9.96;77.90;102604.31;5015020;28;20046;-66
2021/12/15 03:06:10;;;;;;;37.72;20.67;;;;;;;9.67;78.39;102616.72;4995206;28;19937;-65
2021/12/15 03:16:43;;;;;;;37.10;21.10;;;;;;;9.64;79.19;102607.06;5014506;28;20053;-65
2021/12/15 03:19:11;;;;;;;34.22;20.77;;;;;;;9.53;79.52;102618.25;5014637;28;20053;-65
2021/12/15 03:21:39;;;;;;;35.13;19.70;;;;;;;9.66;78.85;102615.09;4997501;28;20054;-65
2021/12/15 03:24:13;;;;;;;35.85;20.80;;;;;;;9.67;79.11;102612.06;5013319;28;20061;-66
2021/12/15 03:26:49;;;;;;;35.10;21.13;;;;;;;9.65;79.15;102618.91;5014679;28;20069;-66
2021/12/15 03:37:35;;;;;;;37.00;20.77;;;;;;;9.62;78.81;102617.53;4994978;28;20054;-65
2021/12/15 03:40:15;;;;;;;35.28;20.20;;;;;;;9.93;78.20;102613.09;4996079;28;20049;-65
2021/12/15 03:42:44;;;;;;;33.93;19.17;;;;;;;9.76;77.68;102617.91;5002628;28;20539;-65
2021/12/15 03:45:16;;;;;;;32.47;20.25;;;;;;;9.59;78.57;102623.53;5017005;28;20782;-65
2021/12/15 03:47:48;;;;;;;32.72;18.85;;;;;;;9.81;77.95;102627.06;5000384;28;20054;-65
2021/12/15 03:50:19;;;;;;;35.08;19.90;;;;;;;9.75;77.93;102624.50;5018117;28;20507;-65
2021/12/15 03:52:49;;;;;;;34.53;19.73;;;;;;;9.62;78.28;102628.53;5000451;28;20053;-66
2021/12/15 03:55:20;;;;;;;33.75;19.08;;;;;;;9.44;78.64;102628.88;4999445;28;20057;-64
2021/12/15 03:57:50;;;;;;;32.25;18.42;;;;;;;9.53;78.80;102626.50;4998180;28;20050;-65
2021/12/15 04:00:20;;;;;;;29.95;18.17;;;;;;;9.65;78.15;102632.66;4997977;28;20050;-65
2021/12/15 04:02:48;;;;;;;30.90;19.60;;;;;;;9.64;78.09;102629.06;4998495;28;20065;-66
2021/12/15 04:05:18;;;;;;;30.13;18.42;;;;;;;9.77;77.26;102627.81;4999392;28;20080;-65
2021/12/15 04:07:47;;;;;;;30.85;18.40;;;;;;;9.69;77.52;102625.56;5000163;28;20054;-66
2021/12/15 04:10:18;;;;;;;34.38;19.85;;;;;;;9.53;78.17;102621.84;4986288;28;20050;-67
2021/12/15 04:12:46;;;;;;;31.73;18.73;;;;;;;9.56;78.32;102629.56;4991946;28;20053;-66
2021/12/15 04:17:54;;;;;;;34.45;19.08;;;;;;;9.72;77.65;102619.53;4997718;28;20070;-66
2021/12/15 04:20:23;;;;;;;31.77;18.33;;;;;;;9.77;77.67;102619.56;4997844;28;20046;-66
2021/12/15 04:22:51;;;;;;;33.03;19.30;;;;;;;9.62;77.86;102622.19;4997831;28;20046;-66
2021/12/15 04:25:24;;;;;;;33.88;19.70;;;;;;;9.82;77.84;102619.59;4998022;28;20066;-65
2021/12/15 04:28:05;;;;;;;33.42;19.92;;;;;;;9.71;76.91;102621.44;4980546;28;20047;-66
2021/12/15 04:30:37;;;;;;;38.83;18.92;;;;;;;9.69;77.94;102615.34;4997299;28;20066;-66
2021/12/15 04:33:12;;;;;;;32.92;18.55;;;;;;;9.71;77.70;102617.88;4997645;28;20049;-66
2021/12/15 04:35:41;;;;;;;38.58;20.17;;;;;;;9.46;78.43;102617.63;4997935;28;20046;-65
2021/12/15 04:38:11;;;;;;;33.67;18.70;;;;;;;9.69;78.20;102615.34;5002018;28;20061;-65
2021/12/15 04:40:38;;;;;;;34.37;20.00;;;;;;;9.68;77.92;102621.13;4982543;28;20524;-65
2021/12/15 04:43:05;;;;;;;33.25;19.33;;;;;;;9.56;78.33;102621.31;5007250;28;20609;-64
2021/12/15 04:45:33;;;;;;;30.88;19.02;;;;;;;9.54;78.05;102628.13;4982657;28;20054;-65
2021/12/15 04:48:00;;;;;;;34.15;19.00;;;;;;;9.40;78.73;102629.66;4979686;28;20521;-65
2021/12/15 04:50:29;;;;;;;35.17;20.45;;;;;;;9.44;78.81;102625.28;4997335;28;20527;-65
2021/12/15 04:53:00;;;;;;;33.15;19.88;;;;;;;9.60;78.21;102635.38;4997181;28;20046;-66
2021/12/15 04:55:29;;;;;;;37.40;19.38;;;;;;;9.65;78.01;102635.41;4998371;28;20050;-65
2021/12/15 04:57:58;;;;;;;32.47;18.77;;;;;;;9.66;77.79;102635.16;4997229;28;20659;-65
2021/12/15 05:00:29;;;;;;;34.80;19.73;;;;;;;9.83;77.20;102635.03;4996858;28;20046;-67
2021/12/15 05:02:57;;;;;;;29.73;17.92;;;;;;;9.64;77.10;102633.78;4980018;28;20050;-65
2021/12/15 05:05:27;;;;;;;28.92;18.13;;;;;;;9.48;77.86;102631.94;4994354;28;20069;-65
2021/12/15 05:07:54;;;;;;;30.23;17.38;;;;;;;9.54;77.64;102639.97;5016486;28;20057;-64
2021/12/15 05:10:22;;;;;;;33.67;18.60;;;;;;;9.28;78.84;102648.22;5013710;28;20058;-66
2021/12/15 05:12:49;;;;;;;35.20;18.55;;;;;;;9.38;78.86;102638.16;5016549;28;20069;-66
2021/12/15 05:15:17;;;;;;;32.28;18.58;;;;;;;9.63;77.93;102646.69;5015395;28;20500;-65
2021/12/15 05:17:45;;;;;;;29.20;17.15;;;;;;;9.69;77.59;102648.38;5016465;28;20054;-65
2021/12/15 05:20:12;;;;;;;29.77;17.25;;;;;;;9.73;77.38;102649.53;5016501;28;20046;-66
2021/12/15 05:22:40;;;;;;;32.67;18.73;;;;;;;9.66;77.89;102651.66;5016480;28;20045;-65
2021/12/15 05:25:08;;;;;;;32.47;18.38;;;;;;;9.82;77.44;102655.38;4996318;28;20077;-65
2021/12/15 05:27:37;;;;;;;29.80;17.63;;;;;;;9.72;76.98;102650.63;4966126;28;20050;-65
2021/12/15 05:30:10;;;;;;;30.92;17.67;;;;;;;9.27;78.54;102652.91;4978989;28;20496;-66
2021/12/15 05:32:38;;;;;;;34.13;17.23;;;;;;;9.23;78.98;102661.91;4979047;28;20415;-66
2021/12/15 05:35:06;;;;;;;28.52;16.73;;;;;;;9.42;78.41;102661.31;5007585;28;20085;-65
2021/12/15 05:37:33;;;;;;;29.27;16.33;;;;;;;9.82;77.25;102658.97;5016356;28;20073;-64
2021/12/15 05:40:01;;;;;;;27.70;16.40;;;;;;;9.76;76.67;102664.69;4997383;28;20066;-65
2021/12/15 05:42:28;;;;;;;26.67;16.85;;;;;;;9.68;76.76;102660.50;5001183;28;20062;-65
2021/12/15 05:44:56;;;;;;;26.60;15.75;;;;;;;9.73;76.27;102670.69;5014785;28;20054;-64
2021/12/15 05:47:25;;;;;;;25.40;15.88;;;;;;;9.71;76.73;102668.22;4998379;28;20160;-66
2021/12/15 05:49:55;;;;;;;25.15;16.15;;;;;;;9.70;76.46;102668.47;5015816;28;20045;-65
2021/12/15 05:52:26;;;;;;;26.15;16.05;;;;;;;9.59;76.74;102662.03;4998361;28;20060;-66
2021/12/15 05:54:54;;;;;;;25.20;14.43;;;;;;;9.67;76.62;102671.75;5014032;28;20050;-66
2021/12/15 05:57:21;;;;;;;25.60;14.77;;;;;;;9.65;76.26;102669.28;4982143;28;20058;-66
2021/12/15 05:59:48;;;;;;;22.42;14.95;;;;;;;9.79;76.02;102672.44;5015422;28;20523;-66
2021/12/15 06:02:16;;;;;;;27.02;15.75;;;;;;;9.69;75.93;102677.84;5015088;28;20049;-65
2021/12/15 06:04:45;;;;;;;28.83;16.77;;;;;;;9.57;76.83;102671.66;4997409;28;20058;-66
2021/12/15 06:07:12;;;;;;;25.75;15.98;;;;;;;9.51;77.07;102676.28;5015476;28;20046;-62
2021/12/15 06:09:39;;;;;;;28.55;16.98;;;;;;;9.59;76.78;102677.75;5013685;28;20452;-63
2021/12/15 06:12:08;;;;;;;28.25;15.77;;;;;;;9.59;77.45;102675.00;5015621;28;20049;-63
2021/12/15 06:14:36;;;;;;;30.45;16.90;;;;;;;9.51;77.06;102683.69;5009271;28;20046;-63
2021/12/15 06:17:07;;;;;;;27.85;16.10;;;;;;;9.61;76.77;102687.38;4978432;28;20054;-63
2021/12/15 06:19:34;;;;;;;26.42;15.98;;;;;;;9.65;77.04;102684.94;4995703;28;20058;-63
2021/12/15 06:22:02;;;;;;;29.90;16.65;;;;;;;9.59;76.79;102689.56;4997768;28;20042;-63
2021/12/15 06:24:30;;;;;;;25.27;15.90;;;;;;;9.62;76.69;102696.47;4997287;28;20041;-64
2021/12/15 06:27:04;;;;;;;30.60;15.70;;;;;;;9.82;76.14;102700.25;5013023;28;20057;-64
2021/12/15 06:29:32;;;;;;;27.50;15.20;;;;;;;9.79;76.29;102697.19;5015177;28;20046;-63
2021/12/15 06:31:59;;;;;;;26.15;15.90;;;;;;;9.99;76.06;102700.97;4982150;28;20061;-63
2021/12/15 06:34:27;;;;;;;26.90;15.10;;;;;;;9.98;75.53;102703.97;5013493;28;20057;-62
2021/12/15 06:36:56;;;;;;;26.95;15.80;;;;;;;9.77;76.55;102702.13;4996493;28;20074;-63
2021/12/15 06:39:23;;;;;;;25.60;15.50;;;;;;;10.18;74.70;102706.97;5008731;28;20576;-65
2021/12/15 06:41:51;;;;;;;25.50;15.45;;;;;;;9.89;75.16;102703.63;4996791;28;20293;-64
2021/12/15 06:44:18;;;;;;;29.38;15.80;;;;;;;9.68;75.98;102700.91;5014812;28;20054;-64
2021/12/15 07:00:25;;;;;;;26.13;14.85;;;;;;;10.04;74.81;102723.03;4996026;28;20065;-63
2021/12/15 07:02:52;;;;;;;23.85;14.40;;;;;;;9.98;75.19;102726.84;4998221;28;20050;-63
2021/12/15 07:05:21;;;;;;;25.73;14.43;;;;;;;10.30;74.59;102717.78;4997559;28;20046;-63
2021/12/15 07:07:50;;;;;;;24.17;15.30;;;;;;;10.07;74.28;102729.97;4995601;28;20067;-63
2021/12/15 07:10:21;;;;;;;23.70;14.52;;;;;;;9.97;75.11;102727.13;5002315;28;20050;-64
2021/12/15 07:12:50;;;;;;;24.48;15.07;;;;;;;10.11;74.62;102722.88;5005237;28;20402;-64
2021/12/15 07:15:17;;;;;;;24.75;14.50;;;;;;;10.17;74.49;102727.31;4987482;28;20042;-65
2021/12/15 07:17:48;;;;;;;25.20;14.23;;;;;;;10.12;74.59;102725.38;5007293;28;20049;-65
2021/12/15 07:20:40;;;;;;;21.35;13.75;;;;;;;10.35;73.67;102726.09;5005562;28;20046;-64
2021/12/15 07:23:11;;;;;;;21.95;13.45;;;;;;;10.20;73.89;102735.88;4992052;28;20421;-64
2021/12/15 07:25:41;;;;;;;26.08;14.70;;;;;;;9.84;74.88;102742.13;4984539;28;20051;-65
2021/12/15 07:28:16;;;;;;;22.42;14.32;;;;;;;9.99;74.88;102739.50;5008182;28;20524;-64
2021/12/15 07:30:45;;;;;;;24.50;14.55;;;;;;;10.05;74.59;102749.50;5006210;28;20382;-64
2021/12/15 07:33:12;;;;;;;27.30;13.73;;;;;;;10.19;73.80;102748.00;5006955;28;20061;-64
2021/12/15 07:35:40;;;;;;;21.27;13.38;;;;;;;10.24;74.06;102749.97;5017466;28;20046;-63
2021/12/15 07:38:08;;;;;;;27.90;14.07;;;;;;;10.23;73.66;102744.72;5017230;28;20046;-62
2021/12/15 07:40:40;;;;;;;23.90;14.13;;;;;;;9.96;74.02;102751.06;5009451;28;20049;-63
2021/12/15 07:43:13;;;;;;;24.35;14.57;;;;;;;9.77;75.07;102757.16;5018082;28;20058;-64
2021/12/15 07:45:50;;;;;;;23.70;13.35;;;;;;;9.80;74.92;102760.22;5000279;28;20485;-65
2021/12/15 07:48:19;;;;;;;26.00;14.43;;;;;;;9.77;75.16;102770.94;5000113;28;20061;-64
2021/12/15 07:50:50;;;;;;;23.60;13.05;;;;;;;9.79;75.17;102766.84;5018000;28;20045;-64
2021/12/15 07:53:18;;;;;;;27.02;14.73;;;;;;;9.71;75.37;102764.53;5017669;28;20054;-64
2021/12/15 07:55:47;;;;;;;19.92;12.55;;;;;;;9.62;75.72;102768.00;4995885;28;20057;-64
2021/12/15 07:58:18;;;;;;;24.95;13.40;;;;;;;9.58;76.00;102767.69;4984393;28;20050;-64
2021/12/15 08:00:47;;;;;;;20.02;12.30;;;;;;;9.66;75.76;102764.47;5000590;28;20061;-64
2021/12/15 08:03:16;;;;;;;24.67;14.27;;;;;;;9.62;76.04;102776.25;4983609;28;20081;-63
2021/12/15 08:05:45;;;;;;;27.80;16.27;;;;;;;9.90;75.23;102773.28;5014062;28;20042;-64
2021/12/15 08:08:13;;;;;;;31.00;14.32;;;;;;;9.94;74.96;102769.75;5018366;28;20061;-64
2021/12/15 08:10:42;;;;;;;25.70;14.40;;;;;;;9.99;74.73;102774.47;4998627;28;20058;-64
2021/12/15 08:13:11;;;;;;;27.58;14.63;;;;;;;9.90;75.13;102778.78;5017889;28;20519;-63
2021/12/15 08:15:38;;;;;;;26.38;14.50;;;;;;;9.77;76.11;102768.16;5015846;28;20052;-63
2021/12/15 08:18:06;;;;;;;25.15;13.95;;;;;;;9.75;76.21;102773.94;4999606;28;20057;-66
2021/12/15 08:20:35;;;;;;;26.50;14.80;;;;;;;9.64;76.22;102774.91;4983138;28;20053;-63
2021/12/15 08:23:03;;;;;;;25.30;13.13;;;;;;;9.90;76.21;102778.78;5017587;28;20054;-64
2021/12/15 08:25:31;;;;;;;24.35;13.40;;;;;;;9.83;75.96;102778.97;4998776;28;20054;-64
2021/12/15 08:27:59;;;;;;;24.20;14.45;;;;;;;10.04;75.51;102786.34;5017178;28;20515;-63
2021/12/15 08:30:28;;;;;;;31.00;14.07;;;;;;;9.91;75.67;102778.53;5015290;28;20053;-64
2021/12/15 08:33:01;;;;;;;29.15;13.45;;;;;;;9.87;75.67;102780.13;5017477;28;20049;-63
2021/12/15 08:35:34;;;;;;;21.48;13.52;;;;;;;9.89;75.99;102777.94;5000082;28;20046;-64
2021/12/15 08:38:04;;;;;;;25.23;13.60;;;;;;;10.18;75.27;102784.88;5017420;28;20559;-63
2021/12/15 08:40:31;;;;;;;;;;;;;;;10.08;75.08;102792.19;5005122;28;20058;-64
2021/12/15 08:42:59;;;;;;;27.90;13.77;;;;;;;9.93;75.90;102789.28;4999809;28;19921;-64
2021/12/15 08:45:27;;;;;;;24.20;13.65;;;;;;;9.92;76.50;102782.94;5017020;28;20050;-63
2021/12/15 08:47:59;;;;;;;23.63;13.70;;;;;;;10.03;76.95;102792.13;5017311;28;20050;-64
2021/12/15 08:50:29;;;;;;;24.35;14.07;;;;;;;9.81;77.31;102791.34;5016460;28;20056;-63
2021/12/15 08:52:57;;;;;;;;;;;;;;;10.00;77.36;102785.25;4999031;28;20046;-64
2021/12/15 08:55:24;;;;;;;27.25;14.93;;;;;;;10.07;77.37;102785.03;4998409;28;20396;-63
2021/12/15 08:57:54;;;;;;;25.02;14.00;;;;;;;9.96;77.31;102789.59;4980069;28;20057;-64
2021/12/15 09:00:24;;;;;;;25.55;14.27;;;;;;;9.91;77.61;102789.53;4996883;28;20045;-63
2021/12/15 09:02:54;;;;;;;25.50;13.57;;;;;;;10.00;77.13;102778.88;4981124;28;20485;-64
2021/12/15 09:05:24;;;;;;;26.35;15.07;;;;;;;10.05;77.38;102795.47;4997298;28;20042;-63
2021/12/15 09:07:54;;;;;;;35.72;14.40;;;;;;;10.23;76.85;102788.78;4997361;28;20050;-63
2021/12/15 09:10:28;;;;;;;23.27;13.65;;;;;;;10.12;76.70;102793.38;4998331;28;20046;-63
2021/12/15 09:12:56;;;;;;;25.92;13.60;;;;;;;9.99;77.76;102799.22;4997256;28;20054;-64
2021/12/15 09:15:24;;;;;;;21.20;12.90;;;;;;;9.82;78.46;102810.34;4979562;28;20050;-63
2021/12/15 09:17:52;;;;;;;20.02;12.63;;;;;;;9.87;78.65;102807.66;4979923;28;20050;-65
2021/12/15 09:20:23;;;;;;;30.05;14.48;;;;;;;9.61;79.83;102804.84;4988929;28;20054;-64
2021/12/15 09:22:51;;;;;;;40.67;23.50;;;;;;;9.92;79.36;102809.66;5016587;28;20041;-64
2021/12/15 09:25:18;;;;;;;27.73;14.27;;;;;;;10.14;78.36;102803.03;4997237;28;20096;-64
2021/12/15 09:27:46;;;;;;;25.65;13.98;;;;;;;10.06;78.57;102802.63;5016593;28;20061;-64
2021/12/15 09:30:17;;;;;;;27.17;13.93;;;;;;;10.06;78.26;102805.38;5013893;28;20057;-63
2021/12/15 09:32:45;;;;;;;24.67;12.55;;;;;;;10.20;77.65;102807.50;5016649;28;20060;-64
2021/12/15 09:35:16;;;;;;;18.17;10.45;;;;;;;10.38;76.49;102810.97;5016396;28;20501;-63
2021/12/15 09:37:44;;;;;;;16.30;9.27;;;;;;;10.17;76.37;102808.03;4982126;28;20058;-63
2021/12/15 09:40:13;;;;;;;20.58;10.75;;;;;;;10.04;77.08;102807.56;4991543;28;20104;-65
2021/12/15 09:42:40;;;;;;;16.20;10.57;;;;;;;10.23;76.24;102810.81;5003126;28;20539;-63
2021/12/15 10:18:03;;;;;;;23.67;11.75;;;;;;;10.17;78.30;102813.53;4978693;28;20468;-64
2021/12/15 10:20:31;;;;;;;24.88;10.48;;;;;;;10.25;77.55;102816.91;4995039;28;20054;-64
2021/12/15 10:23:03;;;;;;;21.63;11.18;;;;;;;10.25;77.97;102811.41;4996037;28;20046;-64
2021/12/15 10:25:34;;;;;;;30.98;14.13;;;;;;;10.32;77.17;102812.81;4997022;28;20041;-63
2021/12/15 10:28:03;;;;;;;29.58;10.75;;;;;;;10.16;77.62;102808.28;4996098;28;20069;-64
2021/12/15 10:30:50;;;;;;;22.95;10.50;;;;;;;10.06;78.45;102813.63;4996435;28;20519;-64
2021/12/15 10:33:21;;;;;;;15.75;9.93;;;;;;;10.12;78.34;102815.38;4978112;28;20058;-64
2021/12/15 10:35:53;;;;;;;20.25;10.57;;;;;;;10.54;76.83;102823.78;4995942;28;20069;-64
2021/12/15 10:38:37;;;;;;;16.10;9.27;;;;;;;10.23;77.06;102810.81;5002182;28;20061;-64
2021/12/15 10:41:15;;;;;;;16.38;9.57;;;;;;;10.15;77.69;102818.47;4989914;28;20069;-64
2021/12/15 10:43:56;;;;;;;18.20;9.65;;;;;;;10.33;77.47;102813.66;5010289;28;20479;-64
2021/12/15 10:46:33;;;;;;;15.70;9.85;;;;;;;10.26;77.63;102810.28;4998078;28;20453;-64
2021/12/15 10:49:11;;;;;;;24.92;10.65;;;;;;;10.30;77.56;102809.53;5015189;28;20512;-64
2021/12/15 10:51:42;;;;;;;19.20;11.27;;;;;;;10.22;77.74;102807.22;4987001;28;20165;-64
2021/12/15 10:54:15;;;;;;;17.25;10.13;;;;;;;10.28;78.32;102802.59;4999967;28;20057;-64
2021/12/15 10:56:51;;;;;;;24.92;11.07;;;;;;;10.27;77.73;102807.28;5000829;28;20053;-63
2021/12/15 10:59:19;;;;;;;18.88;10.88;;;;;;;9.99;78.53;102805.59;5000276;28;20409;-64
2021/12/15 11:01:51;;;;;;;17.08;10.20;;;;;;;10.19;78.20;102800.34;4982226;28;20050;-63
2021/12/15 11:04:40;;;;;;;17.35;10.38;;;;;;;10.38;77.91;102805.44;4966242;28;20078;-65
2021/12/15 11:07:15;;;;;;;20.30;10.63;;;;;;;10.31;77.72;102802.06;4999438;28;20050;-64
2021/12/15 11:10:07;;;;;;;22.58;11.23;;;;;;;10.32;77.65;102807.31;4983139;28;20484;-65
2021/12/15 11:12:40;;;;;;;20.55;11.00;;;;;;;10.36;77.30;102804.88;4981953;28;20042;-64
2021/12/15 11:15:14;;;;;;;25.40;10.95;;;;;;;10.64;76.84;102796.31;4998779;28;20481;-64
2021/12/15 11:17:46;;;;;;;22.75;10.95;;;;;;;10.50;76.36;102795.09;5000386;28;20065;-63
2021/12/15 11:20:19;;;;;;;22.73;11.65;;;;;;;10.56;76.22;102794.06;4999230;28;20058;-63
2021/12/15 11:23:00;;;;;;;16.42;10.52;;;;;;;10.66;76.13;102794.97;5000293;28;20062;-63
2021/12/15 11:25:43;;;;;;;19.63;11.95;;;;;;;10.57;75.99;102795.69;5006639;28;20065;-64
2021/12/15 11:28:13;;;;;;;20.20;11.75;;;;;;;10.84;75.24;102794.56;5018901;28;20049;-64
2021/12/15 11:30:52;;;;;;;21.85;12.45;;;;;;;10.63;76.07;102787.22;4984322;28;20062;-63
2021/12/15 11:33:28;;;;;;;21.35;11.45;;;;;;;10.53;76.12;102784.38;4995334;28;20061;-64
2021/12/15 11:35:57;;;;;;;23.70;11.63;;;;;;;10.46;76.14;102786.50;4997700;28;20050;-64
2021/12/15 11:38:34;;;;;;;21.27;11.13;;;;;;;10.44;76.54;102788.72;5004726;28;20441;-63
2021/12/15 11:41:12;;;;;;;17.17;10.90;;;;;;;10.66;76.12;102780.34;5009501;28;20057;-64
2021/12/15 11:43:54;;;;;;;30.60;10.63;;;;;;;10.66;75.82;102778.44;5012860;28;20531;-63
2021/12/15 11:46:31;;;;;;;20.73;10.40;;;;;;;10.40;76.68;102781.22;5018285;28;20045;-64
2021/12/15 11:49:01;;;;;;;16.38;9.88;;;;;;;10.41;76.76;102782.91;5018299;28;20054;-64
2021/12/15 11:51:41;;;;;;;18.33;10.57;;;;;;;10.39;77.23;102776.81;5013468;28;20065;-64
2021/12/15 11:54:23;;;;;;;19.80;10.75;;;;;;;10.32;77.29;102777.03;5018243;28;20049;-63
2021/12/15 11:56:50;;;;;;;21.55;11.05;;;;;;;10.60;76.15;102775.91;5007925;28;20508;-63
2021/12/15 11:59:19;;;;;;;22.75;10.52;;;;;;;10.62;76.48;102777.28;4998254;28;20054;-64
2021/12/15 12:02:08;;;;;;;25.13;10.98;;;;;;;10.66;75.90;102778.44;4999396;28;20057;-65
2021/12/15 12:04:39;;;;;;;19.35;9.68;;;;;;;11.20;74.59;102770.78;4997549;28;20057;-65
2021/12/15 12:07:25;;;;;;;17.50;9.63;;;;;;;10.93;74.15;102767.31;4996831;28;20050;-64
2021/12/15 12:09:56;;;;;;;23.17;10.35;;;;;;;10.84;74.96;102763.41;4997992;28;20065;-64
2021/12/15 12:12:30;;;;;;;19.77;10.70;;;;;;;10.72;75.68;102773.78;4982208;28;20063;-64
2021/12/15 12:14:57;;;;;;;19.55;11.15;;;;;;;10.65;76.45;102776.75;4997519;28;20054;-64
2021/12/15 12:17:46;;;;;;;20.35;11.52;;;;;;;10.78;75.41;102773.56;4998432;28;20042;-64
2021/12/15 12:20:16;;;;;;;15.85;7.55;;;;;;;10.87;75.08;102762.84;4998509;28;20066;-64
2021/12/15 12:22:46;;;;;;;12.32;6.30;;;;;;;10.61;74.59;102766.53;5014124;28;20054;-65
2021/12/15 12:25:23;;;;;;;11.38;5.65;;;;;;;10.63;74.71;102764.34;5015997;28;20433;-63
2021/12/15 12:27:52;;;;;;;13.05;5.38;;;;;;;10.55;74.53;102765.66;4985290;28;20386;-64
2021/12/15 12:30:26;;;;;;;11.00;5.13;;;;;;;10.52;74.90;102768.94;5016962;28;20270;-63
2021/12/15 12:32:54;;;;;;;11.40;5.70;;;;;;;10.52;74.57;102763.44;5001962;28;20106;-62
2021/12/15 12:35:28;;;;;;;12.60;6.10;;;;;;;10.66;74.55;102763.81;4979676;28;20066;-63
2021/12/15 12:38:01;;;;;;;15.80;6.68;;;;;;;10.68;74.73;102764.38;5000448;28;20058;-64
2021/12/15 12:40:34;;;;;;;13.02;6.30;;;;;;;10.62;74.60;102752.47;4994183;28;20402;-63
2021/12/15 12:43:23;;;;;;;12.20;5.90;;;;;;;10.63;74.75;102751.41;4989354;28;20056;-64
2021/12/15 12:46:03;;;;;;;10.77;4.97;;;;;;;10.60;74.66;102746.41;5017168;28;20104;-63
2021/12/15 13:00:18;;;;;;;9.68;5.60;;;;;;;10.54;74.23;102744.72;4997322;28;20062;-64
2021/12/15 13:02:49;;;;;;;8.13;4.82;;;;;;;10.56;74.20;102752.72;5016903;28;20045;-64
2021/12/15 13:05:34;;;;;;;10.20;4.82;;;;;;;10.69;73.38;102753.09;5016516;28;20061;-63
2021/12/15 13:08:05;;;;;;;10.27;6.35;;;;;;;10.56;73.83;102752.72;5017027;28;20048;-65
2021/12/15 13:10:51;;;;;;;10.40;6.13;;;;;;;10.35;74.90;102751.72;5014845;28;20061;-63
2021/12/15 13:13:21;;;;;;;13.73;6.45;;;;;;;10.55;74.67;102748.31;5016533;28;20054;-64